createdAt,value
2018-03-31T00:01:20.237Z,97698.20
2018-03-31T00:07:23.900Z,97709.27
2018-03-31T00:13:28.185Z,97720.13
2018-03-31T00:19:32.077Z,97711.08
2018-03-31T00:25:35.735Z,97716.34
2018-03-31T00:31:39.494Z,97715.01
2018-03-31T00:37:43.199Z,97709.27
2018-03-31T00:43:46.917Z,97703.53
2018-03-31T00:49:51.501Z,97695.28
2018-03-31T00:55:55.530Z,97681.00
2018-03-31T01:01:59.543Z,97676.23
2018-03-31T01:08:03.496Z,97672.61
2018-03-31T01:14:07.207Z,97686.27
2018-03-31T01:20:10.853Z,97682.98
2018-03-31T01:26:14.491Z,97685.92
2018-03-31T01:32:18.937Z,97681.56
2018-03-31T01:38:23.581Z,97682.33
2018-03-31T01:44:27.381Z,97688.86
2018-03-31T01:50:31.036Z,97693.67
2018-03-31T01:56:34.770Z,97695.30
2018-03-31T02:02:38.418Z,97692.53
2018-03-31T02:08:42.065Z,97690.95
2018-03-31T02:14:45.719Z,97703.27
2018-03-31T02:20:49.507Z,97696.33
2018-03-31T02:26:54.422Z,97687.05
2018-03-31T02:32:58.509Z,97684.89
2018-03-31T02:39:02.562Z,97675.17
2018-03-31T02:45:06.221Z,97673.17
2018-03-31T02:51:09.924Z,97667.98
2018-03-31T02:57:13.750Z,97664.41
2018-03-31T03:03:17.562Z,97673.84
2018-03-31T03:09:21.372Z,97664.53
2018-03-31T03:15:25.291Z,97681.41
2018-03-31T03:21:29.386Z,97683.05
2018-03-31T03:27:32.718Z,97680.88
2018-03-31T03:33:36.805Z,97681.19
2018-03-31T03:39:40.848Z,97683.67
2018-03-31T03:45:45.333Z,97696.50
2018-03-31T03:51:49.488Z,97696.78
2018-03-31T03:57:52.836Z,97691.17
2018-03-31T04:03:57.050Z,97687.16
2018-03-31T04:10:00.508Z,97672.64
2018-03-31T04:16:04.091Z,97688.33
2018-03-31T04:22:07.399Z,97683.31
2018-03-31T04:28:10.821Z,97681.39
2018-03-31T04:34:14.239Z,97686.26
2018-03-31T04:40:17.736Z,97696.22
2018-03-31T04:46:21.798Z,97697.44
2018-03-31T04:52:25.771Z,97701.91
2018-03-31T04:58:30.064Z,97699.42
2018-03-31T05:04:33.389Z,97691.69
2018-03-31T05:10:37.411Z,97696.91
2018-03-31T05:16:40.732Z,97698.44
2018-03-31T05:22:44.137Z,97699.23
2018-03-31T05:28:48.331Z,97688.47
2018-03-31T05:34:51.660Z,97692.27
2018-03-31T05:40:55.329Z,97693.44
2018-03-31T05:46:58.713Z,97694.52
2018-03-31T05:53:01.998Z,97698.14
2018-03-31T05:59:05.422Z,97706.19
2018-03-31T06:05:08.738Z,97701.44
2018-03-31T06:11:12.781Z,97702.70
2018-03-31T06:17:16.070Z,97705.05
2018-03-31T06:23:19.360Z,97708.09
2018-03-31T06:29:22.723Z,97697.17
2018-03-31T06:35:27.107Z,97702.80
2018-03-31T06:41:30.547Z,97705.80
2018-03-31T06:47:33.909Z,97704.20
2018-03-31T06:53:37.207Z,97697.31
2018-03-31T06:59:40.523Z,97697.25
2018-03-31T07:05:43.874Z,97701.13
2018-03-31T07:11:47.155Z,97699.75
2018-03-31T07:17:51.201Z,97695.70
2018-03-31T07:23:55.061Z,97689.53
2018-03-31T07:29:59.297Z,97692.88
2018-03-31T07:36:02.718Z,97703.04
2018-03-31T07:42:06.040Z,97709.70
2018-03-31T07:48:09.367Z,97706.05
2018-03-31T07:54:12.798Z,97705.03
2018-03-31T08:00:16.089Z,97705.16
2018-03-31T08:06:20.155Z,97708.55
2018-03-31T08:12:24.201Z,97721.86
2018-03-31T08:18:27.676Z,97721.23
2018-03-31T08:24:31.823Z,97723.13
2018-03-31T08:30:35.318Z,97735.29
2018-03-31T08:36:38.577Z,97730.20
2018-03-31T08:42:42.029Z,97727.24
2018-03-31T08:48:45.353Z,97720.70
2018-03-31T08:54:48.675Z,97731.95
2018-03-31T09:00:51.956Z,97726.27
2018-03-31T09:06:56.150Z,97723.31
2018-03-31T09:13:00.317Z,97719.48
2018-03-31T09:19:04.350Z,97717.59
2018-03-31T09:25:08.467Z,97717.08
2018-03-31T09:31:11.765Z,97719.36
2018-03-31T09:37:15.429Z,97715.29
2018-03-31T09:43:19.580Z,97722.80
2018-03-31T09:49:22.899Z,97731.16
2018-03-31T09:55:26.834Z,97733.20
2018-03-31T10:01:30.348Z,97746.20
2018-03-31T10:07:33.735Z,97745.10
2018-03-31T10:13:37.822Z,97744.05
2018-03-31T10:19:41.109Z,97739.81
2018-03-31T10:25:44.477Z,97739.11
2018-03-31T10:31:47.840Z,97733.09
2018-03-31T10:37:51.942Z,97742.63
2018-03-31T10:43:56.309Z,97742.92
2018-03-31T10:49:59.717Z,97751.24
2018-03-31T10:56:03.099Z,97752.28
2018-03-31T11:02:06.567Z,97760.83
2018-03-31T11:08:09.840Z,97771.53
2018-03-31T11:14:13.201Z,97766.90
2018-03-31T11:20:16.650Z,97760.35
2018-03-31T11:26:20.059Z,97772.52
2018-03-31T11:32:23.475Z,97773.45
2018-03-31T11:38:28.102Z,97775.02
2018-03-31T11:44:31.420Z,97778.82
2018-03-31T11:50:34.807Z,97776.17
2018-03-31T11:56:38.261Z,97768.41
2018-03-31T12:02:41.737Z,97772.74
2018-03-31T12:08:45.023Z,97771.17
2018-03-31T12:14:48.336Z,97769.00
2018-03-31T12:20:51.778Z,97769.04
2018-03-31T12:26:55.529Z,97776.44
2018-03-31T12:32:59.887Z,97777.36
2018-03-31T12:39:03.205Z,97769.05
2018-03-31T12:45:06.785Z,97772.93
2018-03-31T12:51:10.133Z,97765.98
2018-03-31T12:57:14.432Z,97768.02
2018-03-31T13:03:17.719Z,97772.19
2018-03-31T13:09:21.251Z,97769.45
2018-03-31T13:15:24.681Z,97773.45
2018-03-31T13:21:28.378Z,97776.19
2018-03-31T13:27:31.688Z,97783.91
2018-03-31T13:33:35.091Z,97784.02
2018-03-31T13:39:38.708Z,97783.39
2018-03-31T13:45:42.149Z,97781.28
2018-03-31T13:51:45.483Z,97784.58
2018-03-31T13:57:48.999Z,97784.06
2018-03-31T14:03:52.513Z,97784.98
2018-03-31T14:09:55.854Z,97787.97
2018-03-31T14:15:59.214Z,97788.59
2018-03-31T14:22:02.679Z,97785.22
2018-03-31T14:28:06.121Z,97778.08
2018-03-31T14:34:14.244Z,97773.80
2018-03-31T14:40:17.607Z,97776.03
2018-03-31T14:46:20.953Z,97780.34
2018-03-31T14:52:24.515Z,97788.92
2018-03-31T14:58:28.856Z,97788.92
2018-03-31T15:04:32.180Z,97799.66
2018-03-31T15:10:35.511Z,97799.58
2018-03-31T15:16:38.827Z,97803.03
2018-03-31T15:22:42.213Z,97806.63
2018-03-31T15:28:45.539Z,97800.58
2018-03-31T15:34:49.017Z,97801.28
2018-03-31T15:40:52.329Z,97794.66
2018-03-31T15:46:56.729Z,97795.97
2018-03-31T15:53:00.862Z,97802.22
2018-03-31T15:59:04.147Z,97804.76
2018-03-31T16:05:08.247Z,97811.10
2018-03-31T16:11:11.548Z,97806.26
2018-03-31T16:17:14.931Z,97813.22
2018-03-31T16:23:18.325Z,97815.92
2018-03-31T16:29:21.703Z,97826.03
2018-03-31T16:35:25.311Z,97828.87
2018-03-31T16:41:29.684Z,97833.20
2018-03-31T16:47:32.980Z,97833.94
2018-03-31T16:53:36.305Z,97837.27
2018-03-31T16:59:39.776Z,97833.92
2018-03-31T17:05:43.124Z,97840.66
2018-03-31T17:11:46.609Z,97848.78
2018-03-31T17:17:49.986Z,97855.22
2018-03-31T17:23:53.327Z,97860.22
2018-03-31T17:29:57.192Z,97868.50
2018-03-31T17:36:01.074Z,97873.36
2018-03-31T17:42:04.417Z,97881.87
2018-03-31T17:48:07.771Z,97886.45
2018-03-31T17:54:11.146Z,97874.70
2018-03-31T18:00:14.558Z,97870.52
2018-03-31T18:06:18.085Z,97885.05
2018-03-31T18:12:21.485Z,97877.73
2018-03-31T18:18:24.869Z,97874.28
2018-03-31T18:24:28.591Z,97883.05
2018-03-31T18:30:32.860Z,97900.25
2018-03-31T18:36:36.165Z,97897.04
2018-03-31T18:42:40.245Z,97902.81
2018-03-31T18:48:44.988Z,97897.91
2018-03-31T18:54:48.326Z,97909.60
2018-03-31T19:00:51.730Z,97904.80
2018-03-31T19:06:55.082Z,97914.50
2018-03-31T19:12:59.053Z,97912.07
2018-03-31T19:19:03.922Z,97912.20
2018-03-31T19:25:12.723Z,97911.08
2018-03-31T19:31:16.115Z,97912.02
2018-03-31T19:37:19.458Z,97909.64
2018-03-31T19:43:22.793Z,97919.88
2018-03-31T19:49:27.746Z,97916.56
2018-03-31T19:55:32.260Z,97920.87
2018-03-31T20:01:35.557Z,97925.78
2018-03-31T20:07:39.026Z,97926.83
2018-03-31T20:13:42.448Z,97937.69
2018-03-31T20:19:45.929Z,97943.94
2018-03-31T20:25:50.046Z,97944.89
2018-03-31T20:31:53.414Z,97955.38
2018-03-31T20:37:57.057Z,97938.83
2018-03-31T20:44:00.592Z,97931.94
2018-03-31T20:50:03.948Z,97937.64
2018-03-31T20:56:07.299Z,97944.00
2018-03-31T21:02:10.691Z,97948.43
2018-03-31T21:08:14.120Z,97952.55
2018-03-31T21:14:17.517Z,97961.16
2018-03-31T21:20:20.938Z,97973.58
2018-03-31T21:26:24.381Z,97984.16
2018-03-31T21:32:28.164Z,97996.13
2018-03-31T21:38:31.739Z,98001.34
2018-03-31T21:44:35.323Z,97994.84
2018-03-31T21:50:38.630Z,97995.94
2018-03-31T21:56:41.979Z,97989.24
2018-03-31T22:02:45.275Z,97980.98
2018-03-31T22:08:48.617Z,97988.40
2018-03-31T22:14:57.339Z,97999.19
2018-03-31T22:21:00.623Z,98011.70
2018-03-31T22:27:03.976Z,98008.45
2018-03-31T22:33:07.307Z,98015.69
2018-03-31T22:39:10.803Z,98018.91
2018-03-31T22:45:14.133Z,98022.84
2018-03-31T22:51:18.197Z,98029.30
2018-03-31T22:57:21.575Z,98025.78
2018-03-31T23:03:25.073Z,98023.03
2018-03-31T23:09:28.888Z,98019.39
2018-03-31T23:15:33.436Z,98037.06
2018-03-31T23:21:37.084Z,98038.06
2018-03-31T23:27:41.556Z,98038.56
2018-03-31T23:33:45.303Z,98037.08
2018-03-31T23:39:48.947Z,98035.45
2018-03-31T23:45:52.382Z,98028.31
2018-03-31T23:51:56.281Z,98032.86
2018-03-31T23:58:00.686Z,98034.73
